sensor_id;sensor_type;location;lat;lon;timestamp;pressure;altitude;pressure_sealevel;temperature;humidity
12973;BME280;6551;51.056;9.466;2023-06-10T00:00:54;97540.53;;;23.31;50.52
12973;BME280;6551;51.056;9.466;2023-06-10T00:03:21;97541.34;;;23.32;50.44
12973;BME280;6551;51.056;9.466;2023-06-10T00:05:50;97543.69;;;23.38;50.61
12973;BME280;6551;51.056;9.466;2023-06-10T00:08:17;97543.47;;;23.35;50.31
12973;BME280;6551;51.056;9.466;2023-06-10T00:10:46;97538.16;;;23.29;50.53
12973;BME280;6551;51.056;9.466;2023-06-10T00:13:12;97541.88;;;23.06;50.49
12973;BME280;6551;51.056;9.466;2023-06-10T00:15:39;97539.63;;;23.22;50.77
12973;BME280;6551;51.056;9.466;2023-06-10T00:18:05;97531.72;;;22.98;50.77
12973;BME280;6551;51.056;9.466;2023-06-10T00:20:32;97529.47;;;22.87;50.83
12973;BME280;6551;51.056;9.466;2023-06-10T00:22:58;97527.97;;;22.94;50.60
12973;BME280;6551;51.056;9.466;2023-06-10T00:25:27;97524.75;;;23.06;50.93
12973;BME280;6551;51.056;9.466;2023-06-10T00:27:55;97532.19;;;23.00;50.91
12973;BME280;6551;51.056;9.466;2023-06-10T00:30:22;97527.09;;;22.99;50.73
12973;BME280;6551;51.056;9.466;2023-06-10T00:32:48;97529.06;;;22.80;50.78
12973;BME280;6551;51.056;9.466;2023-06-10T00:35:15;97526.06;;;22.81;51.16
12973;BME280;6551;51.056;9.466;2023-06-10T00:37:41;97524.97;;;22.82;51.33
12973;BME280;6551;51.056;9.466;2023-06-10T00:40:08;97524.03;;;22.73;51.31
12973;BME280;6551;51.056;9.466;2023-06-10T00:42:38;97524.91;;;22.68;51.01
12973;BME280;6551;51.056;9.466;2023-06-10T00:45:05;97528.53;;;22.64;51.00
12973;BME280;6551;51.056;9.466;2023-06-10T00:47:32;97530.50;;;22.45;51.29
12973;BME280;6551;51.056;9.466;2023-06-10T00:49:58;97529.78;;;22.39;51.47
12973;BME280;6551;51.056;9.466;2023-06-10T00:52:27;97522.44;;;22.40;51.62
12973;BME280;6551;51.056;9.466;2023-06-10T00:54:53;97535.53;;;21.63;52.28
12973;BME280;6551;51.056;9.466;2023-06-10T00:57:20;97530.19;;;22.14;52.02
12973;BME280;6551;51.056;9.466;2023-06-10T00:59:48;97530.53;;;22.26;52.24
12973;BME280;6551;51.056;9.466;2023-06-10T01:02:16;97528.34;;;22.28;51.87
12973;BME280;6551;51.056;9.466;2023-06-10T01:04:43;97525.84;;;22.13;52.24
12973;BME280;6551;51.056;9.466;2023-06-10T01:07:37;97527.84;;;22.26;52.09
12973;BME280;6551;51.056;9.466;2023-06-10T01:10:24;97534.13;;;22.22;52.13
12973;BME280;6551;51.056;9.466;2023-06-10T01:12:55;97530.94;;;22.01;52.20
12973;BME280;6551;51.056;9.466;2023-06-10T01:15:25;97534.47;;;22.01;52.19
12973;BME280;6551;51.056;9.466;2023-06-10T01:18:02;97522.56;;;22.16;52.15
12973;BME280;6551;51.056;9.466;2023-06-10T01:20:31;97534.47;;;22.01;52.18
12973;BME280;6551;51.056;9.466;2023-06-10T01:23:01;97537.25;;;21.96;52.45
12973;BME280;6551;51.056;9.466;2023-06-10T01:25:29;97530.94;;;21.82;52.60
12973;BME280;6551;51.056;9.466;2023-06-10T01:29:03;97529.34;;;22.00;52.49
12973;BME280;6551;51.056;9.466;2023-06-10T01:31:27;97535.19;;;21.88;52.56
12973;BME280;6551;51.056;9.466;2023-06-10T01:34:01;97540.38;;;21.66;52.68
12973;BME280;6551;51.056;9.466;2023-06-10T01:36:29;97542.50;;;21.69;53.02
12973;BME280;6551;51.056;9.466;2023-06-10T01:38:55;97533.72;;;21.58;52.90
12973;BME280;6551;51.056;9.466;2023-06-10T01:41:22;97541.56;;;21.60;53.10
12973;BME280;6551;51.056;9.466;2023-06-10T01:43:51;97537.97;;;21.65;53.06
12973;BME280;6551;51.056;9.466;2023-06-10T01:48:47;97532.59;;;21.41;53.38
12973;BME280;6551;51.056;9.466;2023-06-10T01:51:14;97538.53;;;21.43;53.63
12973;BME280;6551;51.056;9.466;2023-06-10T01:53:40;97528.63;;;21.33;53.64
12973;BME280;6551;51.056;9.466;2023-06-10T01:56:06;97539.97;;;21.35;53.89
12973;BME280;6551;51.056;9.466;2023-06-10T01:58:32;97539.97;;;21.35;53.48
12973;BME280;6551;51.056;9.466;2023-06-10T02:00:58;97534.78;;;21.39;53.55
12973;BME280;6551;51.056;9.466;2023-06-10T02:03:25;97538.31;;;21.58;53.36
12973;BME280;6551;51.056;9.466;2023-06-10T02:05:53;97538.25;;;21.44;53.21
12973;BME280;6551;51.056;9.466;2023-06-10T02:08:19;97539.13;;;21.40;53.12
12973;BME280;6551;51.056;9.466;2023-06-10T02:10:46;97548.34;;;21.39;53.23
12973;BME280;6551;51.056;9.466;2023-06-10T02:13:13;97545.69;;;21.34;53.05
12973;BME280;6551;51.056;9.466;2023-06-10T02:15:41;97541.81;;;21.40;52.74
12973;BME280;6551;51.056;9.466;2023-06-10T02:18:09;97541.94;;;21.30;52.96
12973;BME280;6551;51.056;9.466;2023-06-10T02:20:39;97542.97;;;21.34;53.05
12973;BME280;6551;51.056;9.466;2023-06-10T02:23:06;97545.66;;;21.15;53.07
12973;BME280;6551;51.056;9.466;2023-06-10T02:25:32;97553.50;;;21.17;53.07
12973;BME280;6551;51.056;9.466;2023-06-10T02:27:58;97549.78;;;21.08;53.29
12973;BME280;6551;51.056;9.466;2023-06-10T02:30:24;97547.25;;;20.92;53.38
12973;BME280;6551;51.056;9.466;2023-06-10T02:32:50;97549.88;;;20.97;53.63
12973;BME280;6551;51.056;9.466;2023-06-10T02:35:19;97545.66;;;21.15;53.58
12973;BME280;6551;51.056;9.466;2023-06-10T02:37:46;97546.81;;;21.09;53.36
12973;BME280;6551;51.056;9.466;2023-06-10T02:40:14;97554.50;;;20.97;53.58
12973;BME280;6551;51.056;9.466;2023-06-10T02:42:41;97552.53;;;21.02;53.56
12973;BME280;6551;51.056;9.466;2023-06-10T02:45:07;97551.03;;;20.91;53.60
12973;BME280;6551;51.056;9.466;2023-06-10T02:47:33;97555.75;;;20.81;53.89
12973;BME280;6551;51.056;9.466;2023-06-10T02:49:59;97558.47;;;20.81;53.87
12973;BME280;6551;51.056;9.466;2023-06-10T02:52:26;97554.44;;;20.78;54.13
12973;BME280;6551;51.056;9.466;2023-06-10T02:54:52;97556.94;;;20.70;54.29
12973;BME280;6551;51.056;9.466;2023-06-10T02:57:19;97559.91;;;20.73;54.47
12973;BME280;6551;51.056;9.466;2023-06-10T02:59:47;97562.94;;;20.67;54.47
12973;BME280;6551;51.056;9.466;2023-06-10T03:02:14;97551.59;;;20.65;54.46
12973;BME280;6551;51.056;9.466;2023-06-10T03:04:42;97559.28;;;20.53;54.96
12973;BME280;6551;51.056;9.466;2023-06-10T03:07:10;97553.63;;;20.49;54.78
12973;BME280;6551;51.056;9.466;2023-06-10T03:09:37;97550.31;;;20.57;54.65
12973;BME280;6551;51.056;9.466;2023-06-10T03:12:06;97552.69;;;20.64;54.68
12973;BME280;6551;51.056;9.466;2023-06-10T03:14:32;97553.16;;;20.71;54.36
12973;BME280;6551;51.056;9.466;2023-06-10T03:16:58;97549.97;;;20.64;54.37
12973;BME280;6551;51.056;9.466;2023-06-10T03:19:25;97552.28;;;20.52;54.88
12973;BME280;6551;51.056;9.466;2023-06-10T03:22:11;97556.84;;;20.80;54.92
12973;BME280;6551;51.056;9.466;2023-06-10T03:24:39;97556.31;;;20.78;54.79
12973;BME280;6551;51.056;9.466;2023-06-10T03:27:12;97550.66;;;20.74;55.14
12973;BME280;6551;51.056;9.466;2023-06-10T03:29:39;97557.38;;;20.82;54.67
12973;BME280;6551;51.056;9.466;2023-06-10T03:32:06;97561.03;;;20.67;54.72
12973;BME280;6551;51.056;9.466;2023-06-10T03:34:32;97555.09;;;19.98;56.12
12973;BME280;6551;51.056;9.466;2023-06-10T03:36:59;97563.13;;;19.69;56.69
12973;BME280;6551;51.056;9.466;2023-06-10T03:39:25;97554.69;;;20.53;55.50
12973;BME280;6551;51.056;9.466;2023-06-10T03:41:55;97570.63;;;19.82;56.00
12973;BME280;6551;51.056;9.466;2023-06-10T03:44:21;97570.81;;;19.96;56.43
12973;BME280;6551;51.056;9.466;2023-06-10T03:46:48;97564.72;;;20.14;56.54
12973;BME280;6551;51.056;9.466;2023-06-10T03:49:15;97566.13;;;20.74;56.34
12973;BME280;6551;51.056;9.466;2023-06-10T03:51:44;97562.56;;;20.78;55.14
12973;BME280;6551;51.056;9.466;2023-06-10T03:54:11;97567.69;;;21.51;53.69
12973;BME280;6551;51.056;9.466;2023-06-10T03:56:38;97561.84;;;21.81;52.81
12973;BME280;6551;51.056;9.466;2023-06-10T03:59:04;97568.25;;;22.09;52.10
12973;BME280;6551;51.056;9.466;2023-06-10T04:01:31;97556.56;;;22.27;52.16
12973;BME280;6551;51.056;9.466;2023-06-10T04:03:57;97565.81;;;22.58;51.29
12973;BME280;6551;51.056;9.466;2023-06-10T04:06:23;97565.75;;;22.77;50.90
12973;BME280;6551;51.056;9.466;2023-06-10T04:08:51;97563.16;;;22.99;50.15
12973;BME280;6551;51.056;9.466;2023-06-10T04:11:18;97565.81;;;22.58;51.30
12973;BME280;6551;51.056;9.466;2023-06-10T04:13:44;97562.28;;;23.04;50.41
12973;BME280;6551;51.056;9.466;2023-06-10T04:16:10;97556.72;;;22.68;50.31
12973;BME280;6551;51.056;9.466;2023-06-10T04:18:36;97560.53;;;22.67;50.50
12973;BME280;6551;51.056;9.466;2023-06-10T04:21:02;97564.34;;;22.80;50.42
12973;BME280;6551;51.056;9.466;2023-06-10T04:23:29;97565.00;;;22.90;50.27
12973;BME280;6551;51.056;9.466;2023-06-10T04:25:55;97574.25;;;23.03;49.94
12973;BME280;6551;51.056;9.466;2023-06-10T04:28:21;97564.91;;;23.22;50.09
12973;BME280;6551;51.056;9.466;2023-06-10T04:30:47;97569.09;;;23.69;48.88
12973;BME280;6551;51.056;9.466;2023-06-10T04:33:13;97560.16;;;23.28;49.57
12973;BME280;6551;51.056;9.466;2023-06-10T04:35:40;97568.88;;;23.93;49.07
12973;BME280;6551;51.056;9.466;2023-06-10T04:38:06;97562.66;;;24.15;48.04
12973;BME280;6551;51.056;9.466;2023-06-10T04:40:32;97568.94;;;24.02;48.61
12973;BME280;6551;51.056;9.466;2023-06-10T04:42:59;97564.50;;;23.56;49.05
12973;BME280;6551;51.056;9.466;2023-06-10T04:45:27;97579.09;;;23.60;49.68
12973;BME280;6551;51.056;9.466;2023-06-10T04:47:55;97576.25;;;23.79;49.70
12973;BME280;6551;51.056;9.466;2023-06-10T04:50:23;97574.94;;;23.76;49.75
12973;BME280;6551;51.056;9.466;2023-06-10T04:52:49;97580.03;;;24.27;49.06
12973;BME280;6551;51.056;9.466;2023-06-10T04:55:19;97573.69;;;24.32;49.06
12973;BME280;6551;51.056;9.466;2023-06-10T04:57:45;97574.09;;;24.25;49.14
12973;BME280;6551;51.056;9.466;2023-06-10T05:00:11;97574.78;;;24.31;49.06
12973;BME280;6551;51.056;9.466;2023-06-10T05:02:38;97583.16;;;24.34;49.59
12973;BME280;6551;51.056;9.466;2023-06-10T05:05:05;97578.44;;;24.26;49.76
12973;BME280;6551;51.056;9.466;2023-06-10T05:07:32;97577.56;;;24.39;49.59
12973;BME280;6551;51.056;9.466;2023-06-10T05:09:58;97576.41;;;24.54;49.23
12973;BME280;6551;51.056;9.466;2023-06-10T05:12:26;97589.00;;;24.72;49.01
12973;BME280;6551;51.056;9.466;2023-06-10T05:14:52;97585.88;;;25.10;48.49
12973;BME280;6551;51.056;9.466;2023-06-10T05:17:18;97581.63;;;25.82;47.09
12973;BME280;6551;51.056;9.466;2023-06-10T05:19:44;97588.38;;;25.93;46.82
12973;BME280;6551;51.056;9.466;2023-06-10T05:22:11;97580.38;;;26.14;46.81
12973;BME280;6551;51.056;9.466;2023-06-10T05:24:38;97583.41;;;26.30;46.58
12973;BME280;6551;51.056;9.466;2023-06-10T05:27:06;97591.31;;;26.48;46.62
12973;BME280;6551;51.056;9.466;2023-06-10T05:29:33;97594.47;;;26.67;47.13
12973;BME280;6551;51.056;9.466;2023-06-10T05:31:59;97597.03;;;26.72;47.19
12973;BME280;6551;51.056;9.466;2023-06-10T05:34:29;97594.59;;;26.97;46.59
12973;BME280;6551;51.056;9.466;2023-06-10T05:36:55;97595.03;;;27.07;46.35
12973;BME280;6551;51.056;9.466;2023-06-10T05:39:21;97596.00;;;27.11;45.62
12973;BME280;6551;51.056;9.466;2023-06-10T05:41:48;97595.31;;;27.23;45.05
12973;BME280;6551;51.056;9.466;2023-06-10T05:44:14;97596.59;;;27.25;45.05
12973;BME280;6551;51.056;9.466;2023-06-10T05:46:42;97596.75;;;27.29;45.22
12973;BME280;6551;51.056;9.466;2023-06-10T05:49:09;97594.44;;;27.48;45.33
12973;BME280;6551;51.056;9.466;2023-06-10T05:51:35;97600.44;;;27.71;44.77
12973;BME280;6551;51.056;9.466;2023-06-10T05:54:04;97599.97;;;27.90;44.29
12973;BME280;6551;51.056;9.466;2023-06-10T05:56:30;97601.81;;;28.06;44.28
12973;BME280;6551;51.056;9.466;2023-06-10T05:58:56;97605.91;;;28.21;44.29
12973;BME280;6551;51.056;9.466;2023-06-10T06:01:22;97608.97;;;28.40;43.36
12973;BME280;6551;51.056;9.466;2023-06-10T06:03:48;97597.72;;;28.54;43.44
12973;BME280;6551;51.056;9.466;2023-06-10T06:06:15;97605.94;;;28.54;43.33
12973;BME280;6551;51.056;9.466;2023-06-10T06:08:41;97606.28;;;28.52;43.80
12973;BME280;6551;51.056;9.466;2023-06-10T06:11:07;97602.81;;;28.64;43.33
12973;BME280;6551;51.056;9.466;2023-06-10T06:13:35;97604.59;;;28.60;43.66
12973;BME280;6551;51.056;9.466;2023-06-10T06:16:01;97601.94;;;28.51;43.40
12973;BME280;6551;51.056;9.466;2023-06-10T06:18:27;97602.72;;;28.72;43.47
12973;BME280;6551;51.056;9.466;2023-06-10T06:20:54;97604.03;;;28.87;43.53
12973;BME280;6551;51.056;9.466;2023-06-10T06:23:20;97604.66;;;29.17;43.68
12973;BME280;6551;51.056;9.466;2023-06-10T06:25:46;97605.63;;;29.33;43.29
12973;BME280;6551;51.056;9.466;2023-06-10T06:28:12;97601.97;;;29.41;43.28
12973;BME280;6551;51.056;9.466;2023-06-10T06:30:39;97600.25;;;29.73;41.96
12973;BME280;6551;51.056;9.466;2023-06-10T06:33:06;97600.75;;;29.63;41.79
12973;BME280;6551;51.056;9.466;2023-06-10T06:35:33;97599.81;;;29.71;42.07
12973;BME280;6551;51.056;9.466;2023-06-10T06:37:59;97596.94;;;29.67;41.92
12973;BME280;6551;51.056;9.466;2023-06-10T06:40:26;97601.97;;;29.77;42.31
12973;BME280;6551;51.056;9.466;2023-06-10T06:42:52;97607.13;;;29.91;41.71
12973;BME280;6551;51.056;9.466;2023-06-10T06:45:19;97609.06;;;29.78;42.73
12973;BME280;6551;51.056;9.466;2023-06-10T06:47:46;97608.69;;;30.16;41.61
12973;BME280;6551;51.056;9.466;2023-06-10T06:50:12;97611.44;;;30.16;41.79
12973;BME280;6551;51.056;9.466;2023-06-10T06:52:39;97619.38;;;29.93;40.85
12973;BME280;6551;51.056;9.466;2023-06-10T06:55:06;97618.41;;;30.13;40.91
12973;BME280;6551;51.056;9.466;2023-06-10T06:57:32;97616.28;;;30.07;41.11
12973;BME280;6551;51.056;9.466;2023-06-10T06:59:59;97623.09;;;30.13;40.57
12973;BME280;6551;51.056;9.466;2023-06-10T07:02:25;97618.09;;;30.15;40.95
12973;BME280;6551;51.056;9.466;2023-06-10T07:04:53;97619.59;;;30.12;40.43
12973;BME280;6551;51.056;9.466;2023-06-10T07:07:21;97620.16;;;30.06;40.67
12973;BME280;6551;51.056;9.466;2023-06-10T07:09:50;97624.53;;;30.07;40.67
12973;BME280;6551;51.056;9.466;2023-06-10T07:12:17;97620.59;;;30.20;40.91
12973;BME280;6551;51.056;9.466;2023-06-10T07:14:44;97626.22;;;29.99;40.52
12973;BME280;6551;51.056;9.466;2023-06-10T07:17:10;97627.84;;;30.00;41.11
12973;BME280;6551;51.056;9.466;2023-06-10T07:19:37;97623.03;;;29.85;41.30
12973;BME280;6551;51.056;9.466;2023-06-10T07:22:03;97623.13;;;29.77;41.39
12973;BME280;6551;51.056;9.466;2023-06-10T07:24:29;97619.25;;;29.78;41.62
12973;BME280;6551;51.056;9.466;2023-06-10T07:26:56;97626.91;;;29.96;41.73
12973;BME280;6551;51.056;9.466;2023-06-10T07:29:22;97625.16;;;30.16;41.02
12973;BME280;6551;51.056;9.466;2023-06-10T07:31:48;97632.13;;;30.38;41.37
12973;BME280;6551;51.056;9.466;2023-06-10T07:34:15;97628.53;;;30.09;41.61
12973;BME280;6551;51.056;9.466;2023-06-10T07:36:42;97635.16;;;30.60;41.60
12973;BME280;6551;51.056;9.466;2023-06-10T07:39:09;97634.47;;;30.11;42.03
12973;BME280;6551;51.056;9.466;2023-06-10T07:41:35;97630.78;;;30.20;42.45
12973;BME280;6551;51.056;9.466;2023-06-10T07:44:02;97630.91;;;30.11;42.10
12973;BME280;6551;51.056;9.466;2023-06-10T07:46:28;97637.94;;;30.36;41.74
12973;BME280;6551;51.056;9.466;2023-06-10T07:48:54;97636.88;;;30.65;41.58
12973;BME280;6551;51.056;9.466;2023-06-10T07:51:21;97636.53;;;30.82;41.11
12973;BME280;6551;51.056;9.466;2023-06-10T07:53:48;97638.69;;;30.89;41.14
12973;BME280;6551;51.056;9.466;2023-06-10T07:56:15;97637.44;;;30.86;40.54
12973;BME280;6551;51.056;9.466;2023-06-10T07:58:42;97642.41;;;30.81;41.89
12973;BME280;6551;51.056;9.466;2023-06-10T08:01:08;97648.56;;;30.90;41.22
12973;BME280;6551;51.056;9.466;2023-06-10T08:03:34;97635.25;;;30.92;40.92
12973;BME280;6551;51.056;9.466;2023-06-10T08:06:01;97646.25;;;31.35;41.04
12973;BME280;6551;51.056;9.466;2023-06-10T08:08:27;97637.28;;;31.38;40.57
12973;BME280;6551;51.056;9.466;2023-06-10T08:10:53;97632.59;;;31.70;40.71
12973;BME280;6551;51.056;9.466;2023-06-10T08:13:20;97638.88;;;31.86;40.00
12973;BME280;6551;51.056;9.466;2023-06-10T08:15:49;97644.06;;;32.03;39.22
12973;BME280;6551;51.056;9.466;2023-06-10T08:18:17;97640.94;;;31.89;39.28
12973;BME280;6551;51.056;9.466;2023-06-10T08:20:43;97636.09;;;31.51;39.56
12973;BME280;6551;51.056;9.466;2023-06-10T08:23:09;97638.19;;;31.58;39.94
12973;BME280;6551;51.056;9.466;2023-06-10T08:25:37;97637.63;;;31.99;40.22
12973;BME280;6551;51.056;9.466;2023-06-10T08:28:04;97646.03;;;32.22;39.44
12973;BME280;6551;51.056;9.466;2023-06-10T08:30:30;97645.25;;;32.40;39.07
12973;BME280;6551;51.056;9.466;2023-06-10T08:32:56;97640.00;;;32.89;38.77
12973;BME280;6551;51.056;9.466;2023-06-10T08:35:23;97639.09;;;33.05;38.53
12973;BME280;6551;51.056;9.466;2023-06-10T08:37:49;97649.28;;;33.20;38.22
12973;BME280;6551;51.056;9.466;2023-06-10T08:40:16;97644.03;;;33.34;38.58
12973;BME280;6551;51.056;9.466;2023-06-10T08:43:42;97643.81;;;33.65;37.71
12973;BME280;6551;51.056;9.466;2023-06-10T08:46:09;97642.59;;;33.89;37.79
12973;BME280;6551;51.056;9.466;2023-06-10T08:48:39;97643.63;;;34.03;37.57
12973;BME280;6551;51.056;9.466;2023-06-10T08:51:10;97633.03;;;34.35;37.25
12973;BME280;6551;51.056;9.466;2023-06-10T08:53:41;97630.09;;;34.54;37.13
12973;BME280;6551;51.056;9.466;2023-06-10T08:56:11;97640.00;;;34.55;35.89
12973;BME280;6551;51.056;9.466;2023-06-10T08:58:38;97645.69;;;34.10;36.21
12973;BME280;6551;51.056;9.466;2023-06-10T09:01:11;97634.81;;;33.72;37.26
12973;BME280;6551;51.056;9.466;2023-06-10T09:03:37;97631.88;;;33.61;36.56
12973;BME280;6551;51.056;9.466;2023-06-10T09:06:05;97635.25;;;33.74;37.21
12973;BME280;6551;51.056;9.466;2023-06-10T09:08:33;97632.19;;;33.79;37.04
12973;BME280;6551;51.056;9.466;2023-06-10T09:11:01;97628.44;;;33.45;37.63
12973;BME280;6551;51.056;9.466;2023-06-10T09:13:27;97635.84;;;33.41;37.09
12973;BME280;6551;51.056;9.466;2023-06-10T09:15:55;97633.28;;;33.29;37.46
12973;BME280;6551;51.056;9.466;2023-06-10T09:18:22;97628.88;;;33.05;37.10
12973;BME280;6551;51.056;9.466;2023-06-10T09:20:49;97626.31;;;33.16;36.98
12973;BME280;6551;51.056;9.466;2023-06-10T09:23:16;97625.50;;;33.34;37.40
12973;BME280;6551;51.056;9.466;2023-06-10T09:25:42;97615.47;;;33.49;35.75
12973;BME280;6551;51.056;9.466;2023-06-10T09:28:15;97619.34;;;33.44;35.97
12973;BME280;6551;51.056;9.466;2023-06-10T09:30:41;97614.50;;;33.38;35.52
12973;BME280;6551;51.056;9.466;2023-06-10T09:33:14;97616.88;;;33.17;36.32
12973;BME280;6551;51.056;9.466;2023-06-10T09:35:49;97625.59;;;33.41;35.78
12973;BME280;6551;51.056;9.466;2023-06-10T09:38:21;97614.00;;;33.55;35.56
12973;BME280;6551;51.056;9.466;2023-06-10T09:40:52;97620.00;;;33.57;35.55
12973;BME280;6551;51.056;9.466;2023-06-10T09:43:21;97614.19;;;33.66;35.57
12973;BME280;6551;51.056;9.466;2023-06-10T09:45:56;97614.84;;;34.34;35.13
12973;BME280;6551;51.056;9.466;2023-06-10T09:48:23;97616.53;;;34.42;35.32
12973;BME280;6551;51.056;9.466;2023-06-10T09:50:50;97611.19;;;34.56;35.05
12973;BME280;6551;51.056;9.466;2023-06-10T09:53:17;97612.84;;;34.61;36.14
12973;BME280;6551;51.056;9.466;2023-06-10T09:55:44;97614.91;;;34.67;34.87
12973;BME280;6551;51.056;9.466;2023-06-10T09:58:11;97614.41;;;34.32;34.43
12973;BME280;6551;51.056;9.466;2023-06-10T10:00:37;97629.16;;;33.42;35.96
12973;BME280;6551;51.056;9.466;2023-06-10T10:03:04;97621.72;;;33.46;36.82
12973;BME280;6551;51.056;9.466;2023-06-10T10:05:30;97621.13;;;33.79;37.20
12973;BME280;6551;51.056;9.466;2023-06-10T10:07:56;97616.28;;;33.98;36.39
12973;BME280;6551;51.056;9.466;2023-06-10T10:10:22;97614.00;;;33.78;35.94
12973;BME280;6551;51.056;9.466;2023-06-10T10:12:54;97616.84;;;34.07;35.27
12973;BME280;6551;51.056;9.466;2023-06-10T10:15:31;97614.69;;;34.53;35.90
12973;BME280;6551;51.056;9.466;2023-06-10T10:18:10;97619.59;;;34.63;35.82
12973;BME280;6551;51.056;9.466;2023-06-10T10:20:49;97622.06;;;34.13;35.41
12973;BME280;6551;51.056;9.466;2023-06-10T10:23:24;97624.16;;;34.23;35.27
12973;BME280;6551;51.056;9.466;2023-06-10T10:25:54;97612.22;;;34.15;35.52
12973;BME280;6551;51.056;9.466;2023-06-10T10:28:24;97614.78;;;34.04;35.53
12973;BME280;6551;51.056;9.466;2023-06-10T10:30:58;97625.19;;;33.85;35.75
12973;BME280;6551;51.056;9.466;2023-06-10T10:34:12;97611.25;;;34.04;34.37
12973;BME280;6551;51.056;9.466;2023-06-10T10:36:35;97619.25;;;33.86;34.82
12973;BME280;6551;51.056;9.466;2023-06-10T10:39:02;97615.06;;;33.70;35.51
12973;BME280;6551;51.056;9.466;2023-06-10T10:41:31;97613.94;;;33.74;35.75
12973;BME280;6551;51.056;9.466;2023-06-10T10:43:59;97614.41;;;33.80;35.84
12973;BME280;6551;51.056;9.466;2023-06-10T10:46:26;97610.41;;;33.74;35.46
12973;BME280;6551;51.056;9.466;2023-06-10T10:48:57;97608.06;;;33.76;35.32
12973;BME280;6551;51.056;9.466;2023-06-10T10:51:24;97615.34;;;33.87;36.15
12973;BME280;6551;51.056;9.466;2023-06-10T10:54:10;97599.69;;;34.25;34.75
12973;BME280;6551;51.056;9.466;2023-06-10T10:56:36;97620.53;;;34.15;35.17
12973;BME280;6551;51.056;9.466;2023-06-10T10:59:10;97611.78;;;34.13;34.60
12973;BME280;6551;51.056;9.466;2023-06-10T11:01:45;97605.47;;;34.13;34.64
12973;BME280;6551;51.056;9.466;2023-06-10T11:04:13;97600.53;;;34.02;35.10
12973;BME280;6551;51.056;9.466;2023-06-10T11:06:40;97607.00;;;33.84;34.95
12973;BME280;6551;51.056;9.466;2023-06-10T11:09:27;97600.81;;;33.68;35.01
12973;BME280;6551;51.056;9.466;2023-06-10T11:11:57;97597.75;;;33.73;35.57
12973;BME280;6551;51.056;9.466;2023-06-10T11:14:29;97605.50;;;33.90;34.64
12973;BME280;6551;51.056;9.466;2023-06-10T11:16:59;97601.88;;;33.86;35.56
12973;BME280;6551;51.056;9.466;2023-06-10T11:19:38;97590.56;;;33.94;35.19
12973;BME280;6551;51.056;9.466;2023-06-10T11:22:17;97592.09;;;33.92;34.70
12973;BME280;6551;51.056;9.466;2023-06-10T11:24:51;97590.41;;;33.84;34.85
12973;BME280;6551;51.056;9.466;2023-06-10T11:27:24;97584.19;;;33.90;34.78
12973;BME280;6551;51.056;9.466;2023-06-10T11:32:33;97597.53;;;33.59;35.76
12973;BME280;6551;51.056;9.466;2023-06-10T11:35:03;97588.94;;;33.90;35.80
12973;BME280;6551;51.056;9.466;2023-06-10T11:37:31;97583.66;;;34.07;34.37
12973;BME280;6551;51.056;9.466;2023-06-10T11:39:58;97585.94;;;33.76;35.80
12973;BME280;6551;51.056;9.466;2023-06-10T11:42:25;97598.06;;;33.68;35.92
12973;BME280;6551;51.056;9.466;2023-06-10T11:44:53;97586.94;;;33.19;35.77
12973;BME280;6551;51.056;9.466;2023-06-10T11:47:21;97581.16;;;33.05;35.38
12973;BME280;6551;51.056;9.466;2023-06-10T11:49:58;97576.34;;;33.02;36.28
12973;BME280;6551;51.056;9.466;2023-06-10T11:52:28;97585.97;;;32.88;36.00
12973;BME280;6551;51.056;9.466;2023-06-10T11:54:57;97586.88;;;32.73;36.21
12973;BME280;6551;51.056;9.466;2023-06-10T11:57:23;97576.19;;;32.53;36.79
12973;BME280;6551;51.056;9.466;2023-06-10T11:59:49;97578.75;;;32.61;36.48
12973;BME280;6551;51.056;9.466;2023-06-10T12:02:17;97580.88;;;32.68;36.75
12973;BME280;6551;51.056;9.466;2023-06-10T12:04:45;97566.31;;;32.52;36.87
12973;BME280;6551;51.056;9.466;2023-06-10T12:07:18;97579.03;;;32.37;36.88
12973;BME280;6551;51.056;9.466;2023-06-10T12:09:46;97579.16;;;32.06;37.15
12973;BME280;6551;51.056;9.466;2023-06-10T12:12:14;97576.53;;;32.13;37.47
12973;BME280;6551;51.056;9.466;2023-06-10T12:14:58;97574.34;;;32.03;37.09
12973;BME280;6551;51.056;9.466;2023-06-10T12:17:37;97573.88;;;31.81;37.97
12973;BME280;6551;51.056;9.466;2023-06-10T12:20:26;97574.59;;;31.78;36.42
12973;BME280;6551;51.056;9.466;2023-06-10T12:22:53;97577.34;;;31.78;36.89
12973;BME280;6551;51.056;9.466;2023-06-10T12:25:27;97573.78;;;31.78;36.40
12973;BME280;6551;51.056;9.466;2023-06-10T12:27:55;97567.66;;;31.84;36.28
12973;BME280;6551;51.056;9.466;2023-06-10T12:30:27;97558.72;;;31.91;36.87
12973;BME280;6551;51.056;9.466;2023-06-10T12:32:54;97568.97;;;31.75;37.41
12973;BME280;6551;51.056;9.466;2023-06-10T12:35:23;97569.09;;;31.98;37.18
12973;BME280;6551;51.056;9.466;2023-06-10T12:38:01;97549.75;;;31.94;36.60
12973;BME280;6551;51.056;9.466;2023-06-10T12:40:36;97565.09;;;32.11;36.15
12973;BME280;6551;51.056;9.466;2023-06-10T12:43:03;97550.59;;;32.14;35.96
12973;BME280;6551;51.056;9.466;2023-06-10T12:45:36;97556.81;;;32.30;36.12
12973;BME280;6551;51.056;9.466;2023-06-10T12:48:23;97554.06;;;32.49;35.94
12973;BME280;6551;51.056;9.466;2023-06-10T12:50:55;97567.72;;;32.61;36.71
12973;BME280;6551;51.056;9.466;2023-06-10T12:53:22;97562.28;;;32.26;36.57
12973;BME280;6551;51.056;9.466;2023-06-10T12:55:52;97554.09;;;31.95;36.64
12973;BME280;6551;51.056;9.466;2023-06-10T12:58:23;97554.44;;;32.09;36.72
12973;BME280;6551;51.056;9.466;2023-06-10T13:00:51;97550.25;;;32.00;36.33
12973;BME280;6551;51.056;9.466;2023-06-10T13:03:20;97543.28;;;31.87;36.64
12973;BME280;6551;51.056;9.466;2023-06-10T13:05:48;97552.03;;;31.57;37.35
12973;BME280;6551;51.056;9.466;2023-06-10T13:08:15;97551.78;;;31.47;36.99
12973;BME280;6551;51.056;9.466;2023-06-10T13:10:42;97550.38;;;31.53;37.32
12973;BME280;6551;51.056;9.466;2023-06-10T13:13:11;97551.88;;;31.50;37.62
12973;BME280;6551;51.056;9.466;2023-06-10T13:15:37;97551.25;;;31.57;37.45
12973;BME280;6551;51.056;9.466;2023-06-10T13:18:04;97546.72;;;31.64;36.97
12973;BME280;6551;51.056;9.466;2023-06-10T13:20:30;97541.81;;;31.73;37.16
12973;BME280;6551;51.056;9.466;2023-06-10T13:22:57;97550.09;;;31.58;37.01